createdAt,value
2023-05-15T00:00:37.870Z,14.73
2023-05-15T00:03:05.741Z,11.35
2023-05-15T00:05:33.790Z,13.02
2023-05-15T00:08:03.200Z,13.00
2023-05-15T00:10:31.009Z,13.48
2023-05-15T00:12:58.925Z,11.50
2023-05-15T00:15:27.133Z,12.40
2023-05-15T00:17:55.290Z,12.98
2023-05-15T00:20:23.314Z,13.02
2023-05-15T00:22:51.150Z,17.20
2023-05-15T00:25:20.356Z,11.18
2023-05-15T00:27:48.241Z,9.90
2023-05-15T00:30:16.378Z,13.30
2023-05-15T00:32:44.420Z,8.65
2023-05-15T00:35:12.279Z,10.15
2023-05-15T00:37:40.163Z,12.63
2023-05-15T00:40:10.889Z,14.45
2023-05-15T00:42:40.635Z,9.77
2023-05-15T00:45:12.044Z,13.15
2023-05-15T00:47:41.501Z,15.43
2023-05-15T00:50:10.329Z,10.48
2023-05-15T00:52:39.213Z,14.05
2023-05-15T00:55:07.997Z,9.90
2023-05-15T00:57:36.105Z,9.32
2023-05-15T01:00:10.560Z,11.82
2023-05-15T01:02:38.616Z,9.93
2023-05-15T01:05:09.070Z,11.32
2023-05-15T01:07:44.623Z,10.48
2023-05-15T01:10:12.982Z,10.25
2023-05-15T01:12:43.036Z,10.32
2023-05-15T01:15:12.615Z,11.73
2023-05-15T01:17:40.547Z,12.05
2023-05-15T01:20:11.998Z,12.75
2023-05-15T01:22:59.934Z,13.40
2023-05-15T01:26:04.651Z,10.88
2023-05-15T01:28:39.338Z,13.05
2023-05-15T01:31:12.374Z,10.43
2023-05-15T01:33:44.406Z,10.02
2023-05-15T01:36:17.523Z,9.82
2023-05-15T01:38:48.671Z,10.75
2023-05-15T01:41:23.384Z,13.25
2023-05-15T01:43:57.780Z,10.38
2023-05-15T01:46:30.338Z,13.02
2023-05-15T01:51:28.653Z,9.63
2023-05-15T01:53:59.714Z,8.48
2023-05-15T01:56:28.508Z,13.60
2023-05-15T01:59:00.225Z,15.52
2023-05-15T02:01:31.460Z,11.88
2023-05-15T02:04:00.838Z,18.63
2023-05-15T02:06:29.442Z,13.18
2023-05-15T02:08:59.655Z,13.70
2023-05-15T02:11:27.500Z,12.68
2023-05-15T02:13:58.022Z,13.00
2023-05-15T02:16:27.359Z,14.05
2023-05-15T02:18:55.672Z,12.82
2023-05-15T02:21:23.597Z,12.55
2023-05-15T02:23:52.212Z,10.68
2023-05-15T02:26:31.171Z,10.30
2023-05-15T02:29:10.613Z,12.55
2023-05-15T02:31:48.689Z,14.23
2023-05-15T02:34:27.624Z,11.77
2023-05-15T02:36:59.137Z,13.52
2023-05-15T02:39:28.795Z,15.25
2023-05-15T02:41:58.841Z,11.70
2023-05-15T02:44:28.144Z,12.40
2023-05-15T02:46:57.656Z,14.13
2023-05-15T02:49:26.007Z,12.52
2023-05-15T02:51:53.849Z,13.27
2023-05-15T02:54:21.927Z,11.82
2023-05-15T02:56:49.866Z,16.42
2023-05-15T02:59:19.868Z,11.25
2023-05-15T03:01:48.119Z,12.32
2023-05-15T03:04:17.721Z,13.77
2023-05-15T03:06:45.648Z,12.18
2023-05-15T03:09:13.551Z,13.00
2023-05-15T03:11:41.678Z,11.50
2023-05-15T03:14:09.634Z,16.02
2023-05-15T03:16:39.005Z,16.13
2023-05-15T03:19:07.162Z,14.38
2023-05-15T03:21:36.516Z,16.10
2023-05-15T03:24:04.745Z,14.65
2023-05-15T03:26:32.587Z,12.68
2023-05-15T03:29:02.172Z,15.20
2023-05-15T03:31:30.097Z,14.45
2023-05-15T03:33:58.040Z,18.42
2023-05-15T03:36:25.924Z,13.15
2023-05-15T03:38:55.170Z,13.95
2023-05-15T03:41:23.126Z,13.50
2023-05-15T03:43:50.945Z,11.07
2023-05-15T03:46:20.178Z,16.70
2023-05-15T03:48:48.225Z,17.25
2023-05-15T03:51:16.209Z,12.10
2023-05-15T03:53:44.146Z,12.40
2023-05-15T03:56:13.436Z,12.77
2023-05-15T03:58:42.218Z,14.82
2023-05-15T04:01:10.144Z,14.02
2023-05-15T04:03:38.036Z,14.27
2023-05-15T04:06:06.931Z,13.77
2023-05-15T04:08:34.788Z,15.43
2023-05-15T04:11:02.724Z,15.18
2023-05-15T04:13:31.946Z,15.18
2023-05-15T04:16:00.030Z,12.80
2023-05-15T04:18:27.996Z,18.33
2023-05-15T04:20:56.042Z,20.73
2023-05-15T04:23:23.935Z,16.50
2023-05-15T04:25:53.760Z,21.90
2023-05-15T04:28:22.096Z,15.77
2023-05-15T04:30:51.632Z,17.10
2023-05-15T04:33:19.529Z,19.92
2023-05-15T04:35:48.093Z,20.15
2023-05-15T04:38:16.056Z,18.30
2023-05-15T04:40:43.927Z,22.60
2023-05-15T04:43:11.868Z,18.45
2023-05-15T04:45:39.838Z,16.48
2023-05-15T04:48:09.206Z,17.75
2023-05-15T04:50:37.347Z,18.90
2023-05-15T04:53:05.508Z,19.30
2023-05-15T04:55:33.802Z,18.27
2023-05-15T04:58:01.716Z,19.10
2023-05-15T05:00:30.017Z,24.48
2023-05-15T05:02:57.988Z,19.98
2023-05-15T05:05:27.469Z,21.58
2023-05-15T05:07:55.335Z,16.42
2023-05-15T05:10:23.225Z,16.92
2023-05-15T05:12:51.126Z,18.17
2023-05-15T05:15:19.061Z,19.65
2023-05-15T05:17:47.364Z,17.63
2023-05-15T05:20:15.456Z,18.23
2023-05-15T05:22:44.704Z,15.20
2023-05-15T05:25:12.609Z,15.90
2023-05-15T05:27:40.496Z,16.00
2023-05-15T05:30:09.701Z,16.08
2023-05-15T05:32:37.572Z,14.02
2023-05-15T05:35:06.458Z,17.98
2023-05-15T05:37:34.399Z,10.98
2023-05-15T05:40:05.784Z,11.93
2023-05-15T05:42:33.688Z,11.50
2023-05-15T05:45:01.526Z,13.15
2023-05-15T05:47:29.469Z,13.57
2023-05-15T05:49:57.326Z,11.18
2023-05-15T05:52:25.274Z,12.65
2023-05-15T05:54:53.131Z,14.55
2023-05-15T05:57:22.445Z,10.07
2023-05-15T05:59:50.821Z,11.82
2023-05-15T06:02:18.836Z,16.92
2023-05-15T06:04:47.107Z,11.15
2023-05-15T06:07:15.046Z,14.82
2023-05-15T06:09:42.997Z,16.42
2023-05-15T06:12:11.111Z,14.52
2023-05-15T06:14:40.319Z,13.60
2023-05-15T06:17:08.421Z,20.77
2023-05-15T06:19:36.350Z,14.85
2023-05-15T06:22:04.365Z,12.77
2023-05-15T06:24:32.364Z,11.43
2023-05-15T06:27:01.027Z,15.63
2023-05-15T06:29:28.886Z,14.15
2023-05-15T06:31:58.266Z,16.90
2023-05-15T06:34:26.073Z,12.50
2023-05-15T06:36:53.895Z,13.75
2023-05-15T06:39:21.704Z,19.80
2023-05-15T06:41:49.641Z,17.15
2023-05-15T06:44:17.521Z,14.60
2023-05-15T06:46:46.675Z,12.88
2023-05-15T06:49:16.021Z,14.40
2023-05-15T06:51:44.113Z,14.60
2023-05-15T06:54:11.957Z,12.40
2023-05-15T06:56:39.765Z,11.50
2023-05-15T06:59:07.838Z,19.83
2023-05-15T07:01:35.974Z,12.95
2023-05-15T07:04:03.892Z,12.82
2023-05-15T07:06:33.179Z,14.55
2023-05-15T07:09:01.370Z,17.73
2023-05-15T07:11:29.495Z,13.88
2023-05-15T07:13:57.411Z,15.75
2023-05-15T07:16:25.293Z,10.55
2023-05-15T07:18:53.144Z,11.88
2023-05-15T07:21:21.038Z,30.98
2023-05-15T07:23:50.278Z,16.77
2023-05-15T07:26:27.903Z,11.18
2023-05-15T07:29:02.487Z,12.80
2023-05-15T07:31:31.208Z,19.38
2023-05-15T07:33:59.174Z,13.82
2023-05-15T07:36:27.047Z,15.73
2023-05-15T07:38:56.285Z,8.32
2023-05-15T07:41:24.150Z,12.88
2023-05-15T07:43:52.021Z,7.90
2023-05-15T07:46:19.924Z,10.57
2023-05-15T07:48:47.945Z,11.32
2023-05-15T07:51:15.862Z,13.10
2023-05-15T07:53:43.844Z,9.35
2023-05-15T07:56:13.135Z,15.60
2023-05-15T07:58:41.038Z,14.55
2023-05-15T08:01:09.322Z,11.02
2023-05-15T08:03:37.374Z,11.68
2023-05-15T08:06:07.325Z,11.57
2023-05-15T08:08:35.362Z,10.02
2023-05-15T08:11:03.285Z,7.88
2023-05-15T08:13:32.518Z,9.00
2023-05-15T08:16:00.472Z,11.32
2023-05-15T08:18:28.475Z,13.77
2023-05-15T08:20:56.382Z,12.10
2023-05-15T08:23:24.325Z,8.75
2023-05-15T08:25:52.239Z,6.88
2023-05-15T08:28:20.130Z,6.25
2023-05-15T08:30:49.405Z,12.73
2023-05-15T08:33:17.315Z,7.45
2023-05-15T08:35:45.197Z,8.57
2023-05-15T08:38:13.072Z,7.18
2023-05-15T08:40:42.441Z,8.35
2023-05-15T08:43:15.665Z,9.57
2023-05-15T08:48:17.170Z,9.57
2023-05-15T08:53:14.534Z,9.98
2023-05-15T08:55:43.295Z,13.50
2023-05-15T08:58:11.706Z,8.65
2023-05-15T09:00:39.654Z,10.68
2023-05-15T09:03:08.080Z,6.53
2023-05-15T09:05:38.811Z,9.10
2023-05-15T09:08:09.859Z,9.23
2023-05-15T09:10:37.785Z,11.57
2023-05-15T09:13:08.301Z,8.80
2023-05-15T09:15:37.295Z,8.15
2023-05-15T09:18:07.856Z,9.60
2023-05-15T09:20:38.713Z,19.52
2023-05-15T09:23:22.784Z,7.05
2023-05-15T09:25:53.385Z,8.20
2023-05-15T09:28:29.750Z,10.13
2023-05-15T09:31:02.686Z,12.18
2023-05-15T09:33:32.494Z,10.35
2023-05-15T09:36:01.988Z,14.20
2023-05-15T09:38:30.888Z,15.55
2023-05-15T09:41:08.512Z,6.22
2023-05-15T09:43:38.453Z,6.10
2023-05-15T09:46:08.322Z,7.70
2023-05-15T09:48:37.033Z,12.25
2023-05-15T09:51:07.656Z,11.52
2023-05-15T09:53:38.522Z,14.05
2023-05-15T09:56:06.711Z,9.68
2023-05-15T09:58:36.256Z,6.70
2023-05-15T10:01:04.460Z,8.23
2023-05-15T10:03:32.767Z,9.73
2023-05-15T10:06:01.699Z,6.22
2023-05-15T10:08:31.090Z,7.57
2023-05-15T10:11:01.757Z,9.25
2023-05-15T10:13:33.044Z,8.93
2023-05-15T10:16:03.620Z,7.43
2023-05-15T10:18:34.278Z,8.98
2023-05-15T10:21:04.434Z,7.35
2023-05-15T10:23:37.522Z,7.85
2023-05-15T10:26:12.202Z,6.65
2023-05-15T10:28:42.319Z,7.32
2023-05-15T10:31:12.290Z,9.73
2023-05-15T10:33:41.490Z,6.63
2023-05-15T10:36:10.543Z,9.32
2023-05-15T10:38:40.712Z,5.95
2023-05-15T10:41:17.156Z,8.13
2023-05-15T10:43:46.831Z,10.63
2023-05-15T10:46:16.026Z,7.72
2023-05-15T10:48:44.564Z,5.50
2023-05-15T10:51:19.675Z,8.13
2023-05-15T10:53:49.038Z,8.10
2023-05-15T10:56:17.691Z,7.57
2023-05-15T10:58:48.056Z,5.70
2023-05-15T11:01:29.470Z,9.90
2023-05-15T11:04:12.511Z,8.05
2023-05-15T11:06:41.600Z,4.72
2023-05-15T11:09:36.319Z,8.75
2023-05-15T11:12:05.677Z,6.88
2023-05-15T11:14:35.884Z,6.05
2023-05-15T11:17:05.931Z,5.22
2023-05-15T11:19:36.758Z,4.80
2023-05-15T11:22:17.915Z,8.75
2023-05-15T11:24:53.029Z,6.95
2023-05-15T11:27:22.785Z,6.32
2023-05-15T11:30:09.558Z,7.03
2023-05-15T11:32:49.715Z,6.65
2023-05-15T11:35:22.488Z,7.88
2023-05-15T11:37:53.884Z,10.82
2023-05-15T11:40:26.866Z,4.80
2023-05-15T11:43:19.969Z,9.23
2023-05-15T11:45:49.874Z,5.47
2023-05-15T11:48:19.010Z,9.55
2023-05-15T11:50:47.641Z,12.50
2023-05-15T11:53:16.634Z,7.00
2023-05-15T11:55:46.273Z,7.22
2023-05-15T11:58:15.850Z,7.55
2023-05-15T12:00:44.512Z,6.95
2023-05-15T12:03:16.021Z,6.93
2023-05-15T12:05:54.075Z,6.63
2023-05-15T12:08:26.723Z,7.37
2023-05-15T12:10:59.410Z,3.53
2023-05-15T12:13:27.404Z,3.85
2023-05-15T12:15:56.941Z,3.55
2023-05-15T12:18:25.229Z,4.55
2023-05-15T12:20:54.056Z,6.00
2023-05-15T12:23:24.235Z,7.18
2023-05-15T12:25:55.067Z,9.10
2023-05-15T12:28:24.666Z,7.28
2023-05-15T12:30:53.604Z,4.28
2023-05-15T12:33:25.466Z,5.47
2023-05-15T12:36:00.236Z,3.20
2023-05-15T12:38:34.208Z,4.30
2023-05-15T12:41:02.243Z,3.38
2023-05-15T12:43:32.897Z,6.63
2023-05-15T12:46:00.923Z,3.10
2023-05-15T12:48:32.864Z,5.30
2023-05-15T12:51:06.973Z,6.80
2023-05-15T12:53:35.193Z,7.18
2023-05-15T12:56:04.674Z,3.53
2023-05-15T12:58:35.006Z,3.58
2023-05-15T13:01:04.414Z,4.85
2023-05-15T13:03:32.918Z,5.00
2023-05-15T13:06:03.196Z,4.13
2023-05-15T13:08:31.505Z,3.72
2023-05-15T13:11:00.946Z,8.20
2023-05-15T13:13:46.466Z,4.88
2023-05-15T13:16:22.199Z,4.28
2023-05-15T13:18:50.150Z,3.55
2023-05-15T13:21:18.508Z,6.10
2023-05-15T13:23:46.441Z,2.28
2023-05-15T13:26:14.570Z,4.38
2023-05-15T13:28:42.480Z,8.05
2023-05-15T13:31:11.820Z,4.28
2023-05-15T13:33:39.731Z,8.40
2023-05-15T13:36:08.328Z,5.50
2023-05-15T13:38:36.354Z,10.48
2023-05-15T13:41:05.570Z,4.65
2023-05-15T13:43:33.473Z,9.80
2023-05-15T13:46:01.410Z,11.82
2023-05-15T13:48:30.642Z,4.43
2023-05-15T13:50:58.625Z,4.72
2023-05-15T13:53:26.541Z,8.52
2023-05-15T13:55:54.483Z,3.65
2023-05-15T13:58:22.474Z,2.88
2023-05-15T14:00:50.488Z,4.07
2023-05-15T14:03:18.646Z,2.13
2023-05-15T14:05:47.973Z,2.40
2023-05-15T14:08:16.578Z,4.03
2023-05-15T14:10:44.712Z,2.97
2023-05-15T14:13:12.657Z,5.32
2023-05-15T14:15:40.466Z,3.30
2023-05-15T14:18:08.512Z,6.07
2023-05-15T14:20:36.442Z,3.45
2023-05-15T14:23:05.753Z,3.92
2023-05-15T14:25:33.661Z,2.95
2023-05-15T14:28:01.496Z,5.30
2023-05-15T14:30:29.571Z,4.35
2023-05-15T14:32:57.532Z,5.07
2023-05-15T14:35:25.452Z,4.63
2023-05-15T14:37:53.341Z,5.13
2023-05-15T14:40:22.681Z,3.10
2023-05-15T14:42:50.664Z,2.97
2023-05-15T14:45:18.570Z,4.43
2023-05-15T14:47:46.458Z,3.92
2023-05-15T14:50:14.392Z,4.65
2023-05-15T14:52:42.222Z,2.70
2023-05-15T14:55:10.779Z,3.47
2023-05-15T14:57:40.088Z,4.88
2023-05-15T15:00:09.529Z,3.95
2023-05-15T15:02:37.578Z,4.60
2023-05-15T15:05:06.156Z,3.25
2023-05-15T15:08:01.070Z,6.85
2023-05-15T15:10:29.502Z,2.47
2023-05-15T15:12:59.031Z,5.00
2023-05-15T15:15:27.164Z,2.75
2023-05-15T15:17:56.534Z,4.18
2023-05-15T15:20:26.290Z,2.13
2023-05-15T15:22:55.220Z,2.95
2023-05-15T15:25:23.588Z,2.08
2023-05-15T15:27:51.973Z,2.15
2023-05-15T15:30:21.325Z,3.17
2023-05-15T15:32:49.325Z,2.65
2023-05-15T15:35:17.284Z,3.90
2023-05-15T15:37:45.111Z,3.45
2023-05-15T15:40:13.192Z,4.05
2023-05-15T15:42:41.115Z,3.78
2023-05-15T15:45:09.555Z,5.25
2023-05-15T15:47:38.818Z,2.35
2023-05-15T15:50:07.486Z,3.50
2023-05-15T15:52:35.377Z,4.88
2023-05-15T15:55:03.395Z,3.38
2023-05-15T15:57:31.351Z,4.57
2023-05-15T15:59:59.272Z,2.00
2023-05-15T16:02:28.308Z,1.65
2023-05-15T16:04:57.628Z,3.35
2023-05-15T16:07:25.560Z,2.15
2023-05-15T16:10:07.796Z,2.78
2023-05-15T16:12:42.192Z,2.42
2023-05-15T16:15:21.497Z,2.58
2023-05-15T16:17:53.304Z,3.72
2023-05-15T16:20:23.852Z,2.50
2023-05-15T16:22:52.101Z,3.03
2023-05-15T16:25:20.048Z,4.47
2023-05-15T16:27:47.909Z,2.97
2023-05-15T16:30:16.126Z,4.45
2023-05-15T16:32:44.161Z,5.07
2023-05-15T16:35:12.132Z,3.22
2023-05-15T16:37:41.371Z,2.40
2023-05-15T16:40:10.178Z,5.40
2023-05-15T16:42:38.873Z,7.20
2023-05-15T16:45:08.459Z,3.45
2023-05-15T16:47:38.311Z,3.63
2023-05-15T16:50:07.293Z,3.90
2023-05-15T16:52:35.903Z,5.72
2023-05-15T16:55:05.948Z,5.10
2023-05-15T16:57:33.865Z,4.70
2023-05-15T17:00:01.978Z,3.28
2023-05-15T17:02:30.059Z,3.15
2023-05-15T17:04:58.283Z,3.38
2023-05-15T17:07:26.257Z,2.60
2023-05-15T17:09:54.888Z,2.75
2023-05-15T17:12:24.781Z,3.67
2023-05-15T17:14:52.789Z,5.90
2023-05-15T17:17:20.684Z,2.97
2023-05-15T17:19:48.587Z,2.50
2023-05-15T17:22:16.407Z,3.30
2023-05-15T17:24:51.396Z,3.03
2023-05-15T17:27:20.944Z,2.67
2023-05-15T17:29:50.372Z,3.25
2023-05-15T17:32:19.175Z,3.20
2023-05-15T17:34:47.393Z,3.88
2023-05-15T17:37:15.713Z,4.72
2023-05-15T17:39:43.633Z,3.78
2023-05-15T17:42:11.490Z,4.32
2023-05-15T17:44:39.547Z,3.70
2023-05-15T17:47:10.247Z,4.22
2023-05-15T17:49:39.488Z,3.88
2023-05-15T17:52:09.160Z,3.65
2023-05-15T17:54:37.257Z,3.33
2023-05-15T17:57:05.590Z,5.63
2023-05-15T17:59:33.827Z,5.90
2023-05-15T18:02:02.166Z,5.65
2023-05-15T18:04:31.527Z,12.50
2023-05-15T18:06:59.441Z,4.97
2023-05-15T18:09:27.488Z,7.00
2023-05-15T18:11:55.350Z,4.50
2023-05-15T18:14:23.222Z,9.18
2023-05-15T18:16:51.410Z,7.25
2023-05-15T18:19:19.535Z,6.50
2023-05-15T18:21:48.981Z,4.78
2023-05-15T18:24:16.876Z,7.75
2023-05-15T18:26:45.138Z,8.48
2023-05-15T18:29:13.084Z,5.93
2023-05-15T18:31:41.049Z,5.90
2023-05-15T18:34:09.048Z,6.82
2023-05-15T18:36:37.109Z,7.47
2023-05-15T18:39:07.227Z,6.68
2023-05-15T18:41:35.179Z,6.00
2023-05-15T18:44:03.052Z,7.63
2023-05-15T18:46:31.816Z,5.50
2023-05-15T18:48:59.737Z,7.80
2023-05-15T18:51:27.910Z,6.68
2023-05-15T18:53:55.753Z,6.50
2023-05-15T18:56:25.236Z,6.07
2023-05-15T18:58:53.282Z,5.30
2023-05-15T19:01:22.092Z,5.07
2023-05-15T19:03:50.181Z,6.35
2023-05-15T19:06:20.286Z,5.82
2023-05-15T19:08:48.776Z,7.00
2023-05-15T19:11:17.713Z,6.90
2023-05-15T19:13:46.933Z,3.83
2023-05-15T19:16:14.994Z,10.40
2023-05-15T19:18:43.247Z,4.93
2023-05-15T19:21:11.557Z,6.95
2023-05-15T19:23:39.451Z,4.22
2023-05-15T19:26:07.397Z,5.30
2023-05-15T19:28:35.894Z,4.82
2023-05-15T19:31:05.640Z,6.32
2023-05-15T19:33:36.061Z,8.25
2023-05-15T19:36:04.006Z,3.03
2023-05-15T19:38:32.244Z,3.67
2023-05-15T19:41:00.160Z,4.03
2023-05-15T19:43:28.124Z,3.63
2023-05-15T19:45:56.059Z,5.82
2023-05-15T19:48:25.380Z,5.65
2023-05-15T19:50:53.340Z,4.82
2023-05-15T19:53:21.657Z,3.95
2023-05-15T19:55:49.535Z,4.03
2023-05-15T19:58:17.485Z,5.63
2023-05-15T20:00:46.220Z,4.60
2023-05-15T20:03:14.192Z,3.65
2023-05-15T20:05:44.502Z,4.40
2023-05-15T20:08:14.072Z,4.57
2023-05-15T20:10:42.117Z,5.20
2023-05-15T20:13:10.914Z,4.30
2023-05-15T20:15:39.989Z,3.00
2023-05-15T20:18:08.116Z,6.03
2023-05-15T20:20:36.469Z,4.20
2023-05-15T20:23:05.866Z,7.80
2023-05-15T20:25:34.059Z,4.93
2023-05-15T20:28:02.004Z,7.03
2023-05-15T20:30:29.976Z,4.95
2023-05-15T20:32:58.248Z,3.40
2023-05-15T20:35:26.766Z,4.97
2023-05-15T20:37:56.388Z,5.35
2023-05-15T20:40:26.457Z,4.40
2023-05-15T20:42:54.462Z,6.05
2023-05-15T20:45:22.791Z,4.47
2023-05-15T20:47:51.172Z,4.93
2023-05-15T20:50:19.635Z,5.90
2023-05-15T20:52:47.724Z,3.92
2023-05-15T20:55:19.482Z,3.88
2023-05-15T20:57:50.351Z,7.20
2023-05-15T21:00:19.289Z,3.83
2023-05-15T21:02:47.773Z,6.22
2023-05-15T21:05:15.938Z,4.03
2023-05-15T21:07:44.384Z,3.58
2023-05-15T21:10:12.644Z,4.97
2023-05-15T21:12:40.961Z,4.93
2023-05-15T21:15:12.154Z,5.38
2023-05-15T21:17:40.260Z,6.80
2023-05-15T21:20:09.528Z,6.05
2023-05-15T21:22:37.486Z,5.07
2023-05-15T21:25:05.975Z,4.07
2023-05-15T21:27:33.896Z,3.80
2023-05-15T21:30:01.849Z,5.78
2023-05-15T21:32:31.133Z,3.95
2023-05-15T21:34:59.021Z,3.53
2023-05-15T21:37:27.379Z,7.55
2023-05-15T21:39:55.270Z,4.45
2023-05-15T21:42:23.519Z,7.38
2023-05-15T21:44:51.349Z,8.98
2023-05-15T21:47:19.275Z,4.72
2023-05-15T21:49:48.651Z,5.95
2023-05-15T21:52:16.577Z,6.07
2023-05-15T21:54:44.675Z,8.77
2023-05-15T21:57:12.624Z,5.03
2023-05-15T21:59:40.586Z,6.32
2023-05-15T22:02:08.548Z,6.07
2023-05-15T22:04:36.548Z,6.65
2023-05-15T22:07:06.256Z,7.22
2023-05-15T22:09:34.242Z,5.88
2023-05-15T22:12:02.111Z,6.68
2023-05-15T22:14:29.978Z,4.82
2023-05-15T22:16:57.843Z,7.65
2023-05-15T22:19:33.213Z,7.13
2023-05-15T22:22:01.924Z,5.07
2023-05-15T22:24:31.314Z,5.90
2023-05-15T22:26:59.600Z,7.38
2023-05-15T22:29:27.681Z,6.22
2023-05-15T22:31:55.647Z,7.95
2023-05-15T22:34:25.312Z,5.82
2023-05-15T22:39:22.030Z,7.13
2023-05-15T22:41:51.232Z,6.25
2023-05-15T22:44:19.098Z,8.82
2023-05-15T22:46:47.000Z,6.32
2023-05-15T22:49:19.219Z,8.70
2023-05-15T22:51:47.140Z,7.55
2023-05-15T22:54:15.024Z,6.65
2023-05-15T22:56:42.856Z,6.65
2023-05-15T22:59:12.074Z,5.65
2023-05-15T23:01:40.064Z,7.10
2023-05-15T23:04:08.326Z,7.25
2023-05-15T23:06:36.284Z,11.85
2023-05-15T23:09:05.211Z,6.03
2023-05-15T23:11:33.261Z,8.77
2023-05-15T23:14:01.355Z,12.43
2023-05-15T23:16:30.878Z,8.60
2023-05-15T23:18:58.896Z,10.88
2023-05-15T23:21:26.929Z,9.63
2023-05-15T23:23:55.088Z,6.65
2023-05-15T23:26:23.076Z,8.85
2023-05-15T23:28:51.081Z,7.90
2023-05-15T23:31:19.189Z,11.65
2023-05-15T23:33:48.445Z,8.73
2023-05-15T23:36:16.315Z,10.00
2023-05-15T23:38:44.323Z,10.40
2023-05-15T23:41:12.244Z,11.82
2023-05-15T23:43:40.108Z,9.05
2023-05-15T23:46:08.070Z,8.25
2023-05-15T23:48:36.058Z,9.18
2023-05-15T23:51:05.613Z,9.98
2023-05-15T23:53:33.500Z,6.97
2023-05-15T23:56:01.342Z,9.30
2023-05-15T23:58:29.218Z,7.45
